UAL184 RPLL-PGUM
Flight info
| Callsign | UAL184 |
|---|---|
| Flight time | 3h 32m |
| Altitude | 39000 |
| Route | JOM2R JOM G467 ACRON |
| Aircraft | B38M/M-SDE1FGHILORVWXY/HB1 |
Departure
| Time | 2026-05-04 10:19 |
|---|---|
| Airport | Ninoy Aquino International Airport (RPLL) |
Arrival
| Time | 2026-05-04 13:52 |
|---|---|
| Airport | Antonio B. Won Pat International Airport (PGUM) |
| Time | Latitude | Longitude | Altitude | Speed | Heading |
|---|---|---|---|---|---|
| 2026-05-04 09:37 | 14.51567 | 121.01610 | 63 ft | 0 kts | 44° |
| 2026-05-04 10:04 | 14.51529 | 121.01514 | 61 ft | 4 kts | 135° |
| 2026-05-04 10:04 | 14.51526 | 121.01517 | 61 ft | 4 kts | 135° |
| 2026-05-04 10:04 | 14.51517 | 121.01527 | 66 ft | 0 kts | 135° |
| 2026-05-04 10:08 | 14.51516 | 121.01528 | 66 ft | 1 kts | 135° |
| 2026-05-04 10:08 | 14.51507 | 121.01538 | 66 ft | 3 kts | 134° |
| 2026-05-04 10:08 | 14.51487 | 121.01558 | 78 ft | 5 kts | 136° |
| 2026-05-04 10:09 | 14.51452 | 121.01586 | 67 ft | 7 kts | 157° |
| 2026-05-04 10:09 | 14.51401 | 121.01572 | 71 ft | 9 kts | 214° |
| 2026-05-04 10:09 | 14.51352 | 121.01590 | 64 ft | 9 kts | 131° |
| 2026-05-04 10:09 | 14.51301 | 121.01645 | 66 ft | 12 kts | 134° |
| 2026-05-04 10:10 | 14.51238 | 121.01711 | 68 ft | 14 kts | 135° |
| 2026-05-04 10:10 | 14.51167 | 121.01785 | 64 ft | 15 kts | 135° |
| 2026-05-04 10:10 | 14.51096 | 121.01857 | 71 ft | 9 kts | 135° |
| 2026-05-04 10:10 | 14.51075 | 121.01878 | 69 ft | 0 kts | 135° |
| 2026-05-04 10:12 | 14.51074 | 121.01879 | 69 ft | 1 kts | 135° |
| 2026-05-04 10:12 | 14.51061 | 121.01893 | 65 ft | 4 kts | 135° |
| 2026-05-04 10:12 | 14.51034 | 121.01918 | 71 ft | 6 kts | 149° |
| 2026-05-04 10:12 | 14.50995 | 121.01907 | 71 ft | 7 kts | 225° |
| 2026-05-04 10:13 | 14.50965 | 121.01855 | 69 ft | 10 kts | 242° |
| 2026-05-04 10:13 | 14.50928 | 121.01785 | 66 ft | 12 kts | 241° |
| 2026-05-04 10:13 | 14.50881 | 121.01699 | 68 ft | 15 kts | 240° |
| 2026-05-04 10:13 | 14.50826 | 121.01602 | 66 ft | 17 kts | 240° |
| 2026-05-04 10:14 | 14.50764 | 121.01491 | 71 ft | 19 kts | 240° |
| 2026-05-04 10:14 | 14.50697 | 121.01368 | 71 ft | 21 kts | 239° |
| 2026-05-04 10:16 | 14.50077 | 121.00255 | 66 ft | 25 kts | 239° |
| 2026-05-04 10:16 | 14.49988 | 121.00098 | 69 ft | 26 kts | 239° |
| 2026-05-04 10:16 | 14.49921 | 120.99980 | 67 ft | 10 kts | 230° |
| 2026-05-04 10:16 | 14.49875 | 120.99966 | 64 ft | 0 kts | 160° |
| 2026-05-04 10:19 | 14.50347 | 121.01023 | 71 ft | 134 kts | 60° |
| 2026-05-04 10:19 | 14.50916 | 121.01973 | 179 ft | 169 kts | 59° |
| 2026-05-04 10:19 | 14.51519 | 121.03009 | 798 ft | 169 kts | 63° |
| 2026-05-04 10:19 | 14.52098 | 121.04095 | 1377 ft | 179 kts | 63° |
| 2026-05-04 10:20 | 14.52688 | 121.05244 | 1989 ft | 186 kts | 62° |
| 2026-05-04 10:20 | 14.53361 | 121.06466 | 2314 ft | 207 kts | 62° |
| 2026-05-04 10:20 | 14.53884 | 121.07940 | 2574 ft | 232 kts | 82° |
| 2026-05-04 10:20 | 14.54062 | 121.09620 | 3188 ft | 238 kts | 82° |
| 2026-05-04 10:21 | 14.54295 | 121.11341 | 3779 ft | 249 kts | 82° |
| 2026-05-04 10:21 | 14.54546 | 121.13169 | 4288 ft | 262 kts | 82° |
| 2026-05-04 10:21 | 14.54801 | 121.15042 | 5054 ft | 263 kts | 82° |
| 2026-05-04 10:21 | 14.55054 | 121.16905 | 5749 ft | 269 kts | 81° |
| 2026-05-04 10:22 | 14.55578 | 121.20773 | 7176 ft | 273 kts | 81° |
| 2026-05-04 10:22 | 14.55842 | 121.22726 | 7915 ft | 275 kts | 81° |
| 2026-05-04 10:22 | 14.56108 | 121.24692 | 8633 ft | 278 kts | 81° |
| 2026-05-04 10:23 | 14.56376 | 121.26672 | 9412 ft | 278 kts | 81° |
| 2026-05-04 10:23 | 14.56645 | 121.28661 | 10077 ft | 281 kts | 81° |
| 2026-05-04 10:25 | 14.58741 | 121.44210 | 14161 ft | 328 kts | 82° |
| 2026-05-04 10:25 | 14.59058 | 121.46570 | 14725 ft | 335 kts | 82° |
| 2026-05-04 10:25 | 14.59374 | 121.48925 | 15425 ft | 335 kts | 82° |
| 2026-05-04 10:25 | 14.59696 | 121.51324 | 16044 ft | 339 kts | 82° |
| 2026-05-04 10:26 | 14.60022 | 121.53768 | 16581 ft | 346 kts | 82° |
| 2026-05-04 10:26 | 14.60354 | 121.56244 | 17270 ft | 346 kts | 82° |
| 2026-05-04 10:26 | 14.60678 | 121.58671 | 17905 ft | 349 kts | 82° |
| 2026-05-04 10:26 | 14.61013 | 121.61177 | 18373 ft | 355 kts | 82° |
| 2026-05-04 10:27 | 14.61351 | 121.63712 | 18905 ft | 357 kts | 83° |
| 2026-05-04 10:27 | 14.61691 | 121.66261 | 19414 ft | 359 kts | 82° |
| 2026-05-04 10:27 | 14.62036 | 121.68847 | 19799 ft | 366 kts | 82° |
| 2026-05-04 10:27 | 14.62382 | 121.71450 | 20332 ft | 367 kts | 82° |
| 2026-05-04 10:28 | 14.62733 | 121.74086 | 20719 ft | 373 kts | 82° |
| 2026-05-04 10:28 | 14.63083 | 121.76722 | 21168 ft | 376 kts | 82° |
| 2026-05-04 10:28 | 14.63439 | 121.79407 | 21685 ft | 378 kts | 82° |
| 2026-05-04 10:28 | 14.63799 | 121.82116 | 22120 ft | 382 kts | 82° |
| 2026-05-04 10:29 | 14.64160 | 121.84838 | 22592 ft | 385 kts | 82° |
| 2026-05-04 10:29 | 14.64524 | 121.87592 | 23083 ft | 388 kts | 82° |
| 2026-05-04 10:29 | 14.64892 | 121.90371 | 23494 ft | 393 kts | 82° |
| 2026-05-04 10:29 | 14.65263 | 121.93180 | 23887 ft | 395 kts | 83° |
| 2026-05-04 10:30 | 14.65631 | 121.95970 | 24268 ft | 398 kts | 83° |
| 2026-05-04 10:30 | 14.66007 | 121.98820 | 24638 ft | 402 kts | 83° |
| 2026-05-04 10:30 | 14.66386 | 122.01696 | 25021 ft | 405 kts | 83° |
| 2026-05-04 10:30 | 14.66768 | 122.04596 | 25384 ft | 408 kts | 82° |
| 2026-05-04 10:31 | 14.67153 | 122.07519 | 25756 ft | 412 kts | 82° |
| 2026-05-04 10:31 | 14.67533 | 122.10411 | 26128 ft | 414 kts | 82° |
| 2026-05-04 10:32 | 14.69900 | 122.28498 | 28297 ft | 432 kts | 82° |
| 2026-05-04 10:33 | 14.70303 | 122.31588 | 28619 ft | 435 kts | 82° |
| 2026-05-04 10:33 | 14.70438 | 122.34698 | 28931 ft | 437 kts | 94° |
| 2026-05-04 10:33 | 14.70269 | 122.37844 | 29299 ft | 439 kts | 92° |
| 2026-05-04 10:33 | 14.70141 | 122.40976 | 29555 ft | 443 kts | 92° |
| 2026-05-04 10:34 | 14.70004 | 122.44200 | 29964 ft | 444 kts | 92° |
| 2026-05-04 10:34 | 14.69867 | 122.47357 | 30219 ft | 448 kts | 93° |
| 2026-05-04 10:34 | 14.69727 | 122.50589 | 30474 ft | 450 kts | 93° |
| 2026-05-04 10:34 | 14.69586 | 122.53821 | 30797 ft | 451 kts | 93° |
| 2026-05-04 10:35 | 14.69443 | 122.57073 | 31027 ft | 455 kts | 93° |
| 2026-05-04 10:35 | 14.69300 | 122.60331 | 31325 ft | 456 kts | 93° |
| 2026-05-04 10:35 | 14.69156 | 122.63599 | 31611 ft | 458 kts | 94° |
| 2026-05-04 10:35 | 14.69010 | 122.66893 | 31892 ft | 459 kts | 93° |
| 2026-05-04 10:36 | 14.68864 | 122.70195 | 32214 ft | 460 kts | 94° |
| 2026-05-04 10:36 | 14.68718 | 122.73468 | 32442 ft | 463 kts | 94° |
| 2026-05-04 10:36 | 14.68569 | 122.76808 | 32711 ft | 465 kts | 94° |
| 2026-05-04 10:36 | 14.68470 | 122.79023 | 32902 ft | 465 kts | 94° |
| 2026-05-04 10:37 | 14.68268 | 122.83504 | 33207 ft | 469 kts | 94° |
| 2026-05-04 10:37 | 14.68168 | 122.85741 | 33393 ft | 470 kts | 94° |
| 2026-05-04 10:37 | 14.68015 | 122.89106 | 33641 ft | 472 kts | 94° |
| 2026-05-04 10:37 | 14.67811 | 122.93610 | 33968 ft | 474 kts | 94° |
| 2026-05-04 10:39 | 14.66927 | 123.12894 | 35445 ft | 475 kts | 94° |
| 2026-05-04 10:39 | 14.66769 | 123.16306 | 35701 ft | 475 kts | 94° |
| 2026-05-04 10:39 | 14.66610 | 123.19722 | 35957 ft | 475 kts | 94° |
| 2026-05-04 10:40 | 14.66450 | 123.23141 | 36212 ft | 475 kts | 94° |
| 2026-05-04 10:40 | 14.66291 | 123.26553 | 36462 ft | 475 kts | 94° |
| 2026-05-04 10:40 | 14.66130 | 123.29972 | 36719 ft | 475 kts | 94° |
| 2026-05-04 10:40 | 14.65970 | 123.33379 | 36965 ft | 475 kts | 94° |
| 2026-05-04 10:41 | 14.65811 | 123.36744 | 37204 ft | 475 kts | 93° |
| 2026-05-04 10:41 | 14.65650 | 123.40144 | 37442 ft | 475 kts | 93° |
| 2026-05-04 10:41 | 14.65487 | 123.43558 | 37678 ft | 475 kts | 94° |
| 2026-05-04 10:41 | 14.65325 | 123.46971 | 37832 ft | 477 kts | 94° |
| 2026-05-04 10:42 | 14.65161 | 123.50397 | 38013 ft | 477 kts | 93° |
| 2026-05-04 10:42 | 14.64997 | 123.53824 | 38225 ft | 477 kts | 93° |
| 2026-05-04 10:42 | 14.64832 | 123.57246 | 38430 ft | 477 kts | 93° |
| 2026-05-04 10:42 | 14.64669 | 123.60626 | 38619 ft | 477 kts | 93° |
| 2026-05-04 10:43 | 14.64503 | 123.64039 | 38770 ft | 477 kts | 93° |
| 2026-05-04 10:44 | 14.63335 | 123.87885 | 38937 ft | 473 kts | 93° |
| 2026-05-04 10:45 | 14.63168 | 123.91266 | 38931 ft | 473 kts | 93° |
| 2026-05-04 10:45 | 14.62832 | 123.98016 | 38932 ft | 473 kts | 93° |
| 2026-05-04 10:46 | 14.62491 | 124.04821 | 38937 ft | 474 kts | 93° |
| 2026-05-04 10:46 | 14.62148 | 124.11630 | 38937 ft | 474 kts | 93° |
| 2026-05-04 10:47 | 14.61806 | 124.18375 | 38938 ft | 474 kts | 94° |
| 2026-05-04 10:47 | 14.61459 | 124.25186 | 38937 ft | 474 kts | 94° |
| 2026-05-04 10:49 | 14.60053 | 124.52380 | 38941 ft | 474 kts | 94° |
| 2026-05-04 10:50 | 14.59699 | 124.59146 | 38933 ft | 474 kts | 94° |
| 2026-05-04 10:52 | 14.58255 | 124.86328 | 38940 ft | 474 kts | 94° |
| 2026-05-04 10:52 | 14.57889 | 124.93117 | 38936 ft | 474 kts | 94° |
| 2026-05-04 10:54 | 14.56408 | 125.20243 | 38935 ft | 474 kts | 94° |
| 2026-05-04 10:56 | 14.54897 | 125.47356 | 38936 ft | 473 kts | 94° |
| 2026-05-04 10:57 | 14.54513 | 125.54147 | 38940 ft | 473 kts | 94° |
| 2026-05-04 10:57 | 14.54128 | 125.60934 | 38943 ft | 473 kts | 94° |
| 2026-05-04 10:58 | 14.53742 | 125.67712 | 38937 ft | 473 kts | 94° |
| 2026-05-04 10:58 | 14.53357 | 125.74436 | 38934 ft | 472 kts | 94° |
| 2026-05-04 10:59 | 14.52968 | 125.81204 | 38933 ft | 471 kts | 94° |
| 2026-05-04 10:59 | 14.52577 | 125.87958 | 38942 ft | 471 kts | 94° |
| 2026-05-04 11:00 | 14.52185 | 125.94713 | 38938 ft | 471 kts | 94° |
| 2026-05-04 11:02 | 14.50590 | 126.21680 | 38939 ft | 471 kts | 94° |
| 2026-05-04 11:05 | 14.47530 | 126.72114 | 38948 ft | 469 kts | 94° |
| 2026-05-04 11:06 | 14.47116 | 126.78793 | 38952 ft | 469 kts | 94° |
| 2026-05-04 11:06 | 14.46699 | 126.85510 | 38946 ft | 468 kts | 94° |
| 2026-05-04 11:10 | 14.43734 | 127.32330 | 38949 ft | 468 kts | 94° |
| 2026-05-04 11:12 | 14.41998 | 127.59090 | 38950 ft | 468 kts | 94° |
| 2026-05-04 11:12 | 14.41558 | 127.65798 | 38952 ft | 468 kts | 94° |
| 2026-05-04 11:13 | 14.41116 | 127.72502 | 38944 ft | 468 kts | 94° |
| 2026-05-04 11:13 | 14.40677 | 127.79140 | 38946 ft | 468 kts | 94° |
| 2026-05-04 11:14 | 14.40230 | 127.85857 | 38957 ft | 468 kts | 94° |
| 2026-05-04 11:16 | 14.38432 | 128.12639 | 38948 ft | 468 kts | 95° |
| 2026-05-04 11:16 | 14.37977 | 128.19352 | 38953 ft | 468 kts | 95° |
| 2026-05-04 11:17 | 14.37523 | 128.26013 | 38958 ft | 468 kts | 95° |
| 2026-05-04 11:19 | 14.35677 | 128.52818 | 38951 ft | 469 kts | 94° |
| 2026-05-04 11:19 | 14.35209 | 128.59537 | 38951 ft | 469 kts | 95° |
| 2026-05-04 11:20 | 14.34740 | 128.66258 | 38951 ft | 469 kts | 95° |
| 2026-05-04 11:20 | 14.34268 | 128.72984 | 38956 ft | 470 kts | 95° |
| 2026-05-04 11:22 | 14.32367 | 128.99821 | 38959 ft | 469 kts | 95° |
| 2026-05-04 11:23 | 14.31890 | 129.06479 | 38956 ft | 469 kts | 95° |
| 2026-05-04 11:25 | 14.30276 | 129.28848 | 38953 ft | 469 kts | 95° |
| 2026-05-04 11:25 | 14.29789 | 129.35539 | 38954 ft | 469 kts | 95° |
| 2026-05-04 11:27 | 14.27574 | 129.65650 | 38962 ft | 469 kts | 95° |
| 2026-05-04 11:28 | 14.27076 | 129.72361 | 38958 ft | 469 kts | 95° |
| 2026-05-04 11:28 | 14.26579 | 129.79024 | 38957 ft | 469 kts | 95° |
| 2026-05-04 11:29 | 14.26078 | 129.85727 | 38958 ft | 469 kts | 95° |
| 2026-05-04 11:29 | 14.25574 | 129.92443 | 38961 ft | 469 kts | 95° |
| 2026-05-04 11:33 | 14.24840 | 130.39453 | 38964 ft | 469 kts | 90° |
| 2026-05-04 11:33 | 14.24785 | 130.46155 | 38954 ft | 470 kts | 90° |
| 2026-05-04 11:34 | 14.24726 | 130.52902 | 38959 ft | 470 kts | 90° |
| 2026-05-04 11:34 | 14.24667 | 130.59595 | 38956 ft | 470 kts | 90° |
| 2026-05-04 11:35 | 14.24605 | 130.66355 | 38958 ft | 470 kts | 90° |
| 2026-05-04 11:35 | 14.24542 | 130.73115 | 38958 ft | 470 kts | 90° |
| 2026-05-04 11:36 | 14.24477 | 130.79817 | 38956 ft | 470 kts | 90° |
| 2026-05-04 11:36 | 14.24409 | 130.86556 | 38955 ft | 470 kts | 90° |
| 2026-05-04 11:37 | 14.24340 | 130.93319 | 38954 ft | 470 kts | 90° |
| 2026-05-04 11:37 | 14.24269 | 131.00019 | 38960 ft | 470 kts | 90° |
| 2026-05-04 11:38 | 14.24196 | 131.06767 | 38960 ft | 470 kts | 90° |
| 2026-05-04 11:38 | 14.24121 | 131.13499 | 38960 ft | 470 kts | 90° |
| 2026-05-04 11:39 | 14.24044 | 131.20250 | 38963 ft | 471 kts | 90° |
| 2026-05-04 11:41 | 14.23761 | 131.43854 | 38958 ft | 471 kts | 90° |
| 2026-05-04 11:41 | 14.23675 | 131.50573 | 38962 ft | 471 kts | 90° |
| 2026-05-04 11:42 | 14.23588 | 131.57338 | 38965 ft | 471 kts | 90° |
| 2026-05-04 11:42 | 14.23499 | 131.64096 | 38967 ft | 471 kts | 90° |
| 2026-05-04 11:43 | 14.23407 | 131.70866 | 38962 ft | 471 kts | 91° |
| 2026-05-04 11:43 | 14.23315 | 131.77597 | 38961 ft | 472 kts | 91° |
| 2026-05-04 11:44 | 14.23220 | 131.84362 | 38960 ft | 472 kts | 91° |
| 2026-05-04 11:44 | 14.23123 | 131.91123 | 38961 ft | 471 kts | 91° |
| 2026-05-04 11:45 | 14.23024 | 131.97843 | 38963 ft | 471 kts | 91° |
| 2026-05-04 11:45 | 14.22923 | 132.04612 | 38965 ft | 471 kts | 91° |
| 2026-05-04 11:46 | 14.22821 | 132.11374 | 38960 ft | 471 kts | 91° |
| 2026-05-04 11:46 | 14.22717 | 132.18073 | 38957 ft | 471 kts | 91° |
| 2026-05-04 11:47 | 14.22611 | 132.24843 | 38957 ft | 471 kts | 91° |
| 2026-05-04 11:47 | 14.22502 | 132.31610 | 38959 ft | 471 kts | 91° |
| 2026-05-04 11:48 | 14.22392 | 132.38337 | 38960 ft | 471 kts | 91° |
| 2026-05-04 11:48 | 14.22280 | 132.45093 | 38962 ft | 471 kts | 91° |
| 2026-05-04 11:49 | 14.22167 | 132.51815 | 38960 ft | 472 kts | 91° |
| 2026-05-04 11:49 | 14.22051 | 132.58579 | 38956 ft | 472 kts | 91° |
| 2026-05-04 11:50 | 14.21933 | 132.65355 | 38959 ft | 472 kts | 91° |
| 2026-05-04 11:50 | 14.21813 | 132.72112 | 38958 ft | 471 kts | 91° |
| 2026-05-04 11:51 | 14.21692 | 132.78837 | 38962 ft | 471 kts | 91° |
| 2026-05-04 11:51 | 14.21569 | 132.85602 | 38964 ft | 472 kts | 91° |
| 2026-05-04 11:52 | 14.21443 | 132.92356 | 38955 ft | 472 kts | 91° |
| 2026-05-04 11:52 | 14.21317 | 132.99077 | 38952 ft | 472 kts | 91° |
| 2026-05-04 11:53 | 14.21187 | 133.05844 | 38953 ft | 471 kts | 91° |
| 2026-05-04 11:53 | 14.21056 | 133.12621 | 38962 ft | 473 kts | 91° |
| 2026-05-04 11:55 | 14.20512 | 133.39704 | 38959 ft | 473 kts | 91° |
| 2026-05-04 11:56 | 14.20372 | 133.46424 | 38957 ft | 472 kts | 91° |
| 2026-05-04 11:56 | 14.20229 | 133.53200 | 38960 ft | 472 kts | 91° |
| 2026-05-04 11:57 | 14.20085 | 133.59969 | 38963 ft | 472 kts | 92° |
| 2026-05-04 11:57 | 14.19938 | 133.66708 | 38963 ft | 472 kts | 92° |
| 2026-05-04 11:58 | 14.19791 | 133.73466 | 38960 ft | 472 kts | 92° |
| 2026-05-04 11:58 | 14.19640 | 133.80226 | 38957 ft | 472 kts | 92° |
| 2026-05-04 11:59 | 14.19488 | 133.86986 | 38961 ft | 472 kts | 92° |
| 2026-05-04 11:59 | 14.19335 | 133.93723 | 38961 ft | 471 kts | 92° |
| 2026-05-04 12:00 | 14.19180 | 134.00477 | 38965 ft | 472 kts | 92° |
| 2026-05-04 12:00 | 14.19022 | 134.07208 | 38962 ft | 472 kts | 92° |
| 2026-05-04 12:01 | 14.18863 | 134.13977 | 38962 ft | 472 kts | 92° |
| 2026-05-04 12:02 | 14.18289 | 134.37621 | 38958 ft | 472 kts | 92° |
| 2026-05-04 12:03 | 14.18121 | 134.44399 | 38957 ft | 472 kts | 92° |
| 2026-05-04 12:03 | 14.17952 | 134.51118 | 38958 ft | 472 kts | 92° |
| 2026-05-04 12:04 | 14.17780 | 134.57894 | 38964 ft | 472 kts | 92° |
| 2026-05-04 12:04 | 14.17607 | 134.64676 | 38962 ft | 473 kts | 92° |
| 2026-05-04 12:05 | 14.17432 | 134.71411 | 38959 ft | 472 kts | 92° |
| 2026-05-04 12:05 | 14.17255 | 134.78170 | 38957 ft | 472 kts | 92° |
| 2026-05-04 12:06 | 14.17076 | 134.84956 | 38957 ft | 472 kts | 92° |
| 2026-05-04 12:06 | 14.16896 | 134.91690 | 38959 ft | 472 kts | 92° |
| 2026-05-04 12:07 | 14.16714 | 134.98450 | 38960 ft | 472 kts | 93° |
| 2026-05-04 12:07 | 14.16386 | 135.05222 | 38958 ft | 472 kts | 94° |
| 2026-05-04 12:08 | 14.16063 | 135.11994 | 38957 ft | 473 kts | 94° |
| 2026-05-04 12:08 | 14.15741 | 135.18726 | 38958 ft | 473 kts | 94° |
| 2026-05-04 12:09 | 14.15417 | 135.25490 | 38958 ft | 473 kts | 94° |
| 2026-05-04 12:09 | 14.15093 | 135.32223 | 38959 ft | 473 kts | 94° |
| 2026-05-04 12:10 | 14.14764 | 135.39002 | 38958 ft | 473 kts | 94° |
| 2026-05-04 12:10 | 14.14434 | 135.45772 | 38958 ft | 473 kts | 94° |
| 2026-05-04 12:11 | 14.14102 | 135.52535 | 38957 ft | 473 kts | 94° |
| 2026-05-04 12:11 | 14.13768 | 135.59308 | 38959 ft | 473 kts | 94° |
| 2026-05-04 12:12 | 14.13434 | 135.66048 | 38961 ft | 473 kts | 94° |
| 2026-05-04 12:12 | 14.13153 | 135.71685 | 38957 ft | 473 kts | 94° |
| 2026-05-04 12:14 | 14.11782 | 135.98810 | 38960 ft | 475 kts | 94° |
| 2026-05-04 12:15 | 14.11434 | 136.05595 | 38960 ft | 475 kts | 94° |
| 2026-05-04 12:15 | 14.11084 | 136.12400 | 38958 ft | 475 kts | 94° |
| 2026-05-04 12:16 | 14.10733 | 136.19170 | 38953 ft | 475 kts | 94° |
| 2026-05-04 12:16 | 14.10378 | 136.25984 | 38956 ft | 476 kts | 94° |
| 2026-05-04 12:17 | 14.10021 | 136.32792 | 38958 ft | 476 kts | 94° |
| 2026-05-04 12:17 | 14.09665 | 136.39567 | 38953 ft | 476 kts | 94° |
| 2026-05-04 12:18 | 14.09304 | 136.46390 | 38952 ft | 476 kts | 94° |
| 2026-05-04 12:18 | 14.08942 | 136.53185 | 38952 ft | 476 kts | 94° |
| 2026-05-04 12:19 | 14.08577 | 136.59997 | 38953 ft | 476 kts | 94° |
| 2026-05-04 12:19 | 14.08213 | 136.66775 | 38956 ft | 476 kts | 94° |
| 2026-05-04 12:20 | 14.07844 | 136.73593 | 38955 ft | 476 kts | 94° |
| 2026-05-04 12:20 | 14.07476 | 136.80364 | 38952 ft | 477 kts | 94° |
| 2026-05-04 12:21 | 14.07103 | 136.87190 | 38952 ft | 477 kts | 94° |
| 2026-05-04 12:21 | 14.06728 | 136.94021 | 38953 ft | 477 kts | 94° |
| 2026-05-04 12:22 | 14.06352 | 137.00843 | 38951 ft | 477 kts | 94° |
| 2026-05-04 12:22 | 14.05976 | 137.07624 | 38952 ft | 477 kts | 94° |
| 2026-05-04 12:23 | 14.05594 | 137.14461 | 38955 ft | 477 kts | 94° |
| 2026-05-04 12:23 | 14.05211 | 137.21297 | 38955 ft | 477 kts | 94° |
| 2026-05-04 12:24 | 14.04829 | 137.28085 | 38955 ft | 477 kts | 94° |
| 2026-05-04 12:24 | 14.04443 | 137.34906 | 38955 ft | 477 kts | 94° |
| 2026-05-04 12:25 | 14.04054 | 137.41740 | 38958 ft | 477 kts | 94° |
| 2026-05-04 12:25 | 14.03666 | 137.48528 | 38958 ft | 477 kts | 94° |
| 2026-05-04 12:26 | 14.03274 | 137.55347 | 38958 ft | 477 kts | 95° |
| 2026-05-04 12:26 | 14.02880 | 137.62175 | 38954 ft | 477 kts | 95° |
| 2026-05-04 12:27 | 14.02484 | 137.69006 | 38958 ft | 478 kts | 95° |
| 2026-05-04 12:27 | 14.02088 | 137.75803 | 38958 ft | 478 kts | 95° |
| 2026-05-04 12:28 | 14.01687 | 137.82630 | 38956 ft | 477 kts | 95° |
| 2026-05-04 12:28 | 14.01286 | 137.89456 | 38960 ft | 477 kts | 95° |
| 2026-05-04 12:29 | 14.00882 | 137.96287 | 38958 ft | 477 kts | 95° |
| 2026-05-04 12:29 | 14.00478 | 138.03073 | 38964 ft | 477 kts | 95° |
| 2026-05-04 12:30 | 14.00073 | 138.09865 | 38957 ft | 474 kts | 95° |
| 2026-05-04 12:30 | 13.99668 | 138.16616 | 38960 ft | 475 kts | 95° |
| 2026-05-04 12:31 | 13.99259 | 138.23400 | 38967 ft | 474 kts | 95° |
| 2026-05-04 12:31 | 13.98850 | 138.30173 | 38961 ft | 473 kts | 95° |
| 2026-05-04 12:32 | 13.98235 | 138.40259 | 38958 ft | 471 kts | 95° |
| 2026-05-04 12:33 | 13.97822 | 138.47004 | 38966 ft | 471 kts | 95° |
| 2026-05-04 12:33 | 13.97407 | 138.53744 | 38962 ft | 471 kts | 95° |
| 2026-05-04 12:34 | 13.96992 | 138.60469 | 38962 ft | 471 kts | 95° |
| 2026-05-04 12:34 | 13.96577 | 138.67151 | 38957 ft | 470 kts | 95° |
| 2026-05-04 12:35 | 13.96157 | 138.73896 | 38960 ft | 471 kts | 95° |
| 2026-05-04 12:35 | 13.95735 | 138.80634 | 38962 ft | 471 kts | 95° |
| 2026-05-04 12:36 | 13.95314 | 138.87317 | 38965 ft | 471 kts | 95° |
| 2026-05-04 12:36 | 13.94893 | 138.94000 | 38964 ft | 471 kts | 95° |
| 2026-05-04 12:37 | 13.94465 | 139.00739 | 38958 ft | 471 kts | 95° |
| 2026-05-04 12:37 | 13.94035 | 139.07479 | 38961 ft | 471 kts | 95° |
| 2026-05-04 12:38 | 13.93609 | 139.14151 | 38966 ft | 470 kts | 95° |
| 2026-05-04 12:38 | 13.93176 | 139.20879 | 38966 ft | 471 kts | 95° |
| 2026-05-04 12:39 | 13.92741 | 139.27610 | 38964 ft | 471 kts | 96° |
| 2026-05-04 12:39 | 13.92307 | 139.34295 | 38965 ft | 470 kts | 95° |
| 2026-05-04 12:40 | 13.91872 | 139.40997 | 38959 ft | 469 kts | 96° |
| 2026-05-04 12:40 | 13.91433 | 139.47705 | 38964 ft | 469 kts | 96° |
| 2026-05-04 12:41 | 13.90992 | 139.54416 | 38970 ft | 469 kts | 96° |
| 2026-05-04 12:41 | 13.90554 | 139.61060 | 38963 ft | 469 kts | 96° |
| 2026-05-04 12:42 | 13.90111 | 139.67757 | 38961 ft | 469 kts | 96° |
| 2026-05-04 12:42 | 13.89665 | 139.74461 | 38961 ft | 469 kts | 96° |
| 2026-05-04 12:43 | 13.89220 | 139.81124 | 38960 ft | 468 kts | 96° |
| 2026-05-04 12:43 | 13.88772 | 139.87810 | 38967 ft | 469 kts | 96° |
| 2026-05-04 12:44 | 13.88321 | 139.94513 | 38970 ft | 469 kts | 96° |
| 2026-05-04 12:44 | 13.87871 | 140.01168 | 38961 ft | 469 kts | 96° |
| 2026-05-04 12:45 | 13.87417 | 140.07865 | 38963 ft | 469 kts | 96° |
| 2026-05-04 12:45 | 13.86962 | 140.14554 | 38963 ft | 468 kts | 95° |
| 2026-05-04 12:46 | 13.86507 | 140.21213 | 38965 ft | 468 kts | 96° |
| 2026-05-04 12:46 | 13.86047 | 140.27908 | 38965 ft | 469 kts | 96° |
| 2026-05-04 12:47 | 13.85586 | 140.34616 | 38965 ft | 469 kts | 96° |
| 2026-05-04 12:47 | 13.85127 | 140.41255 | 38962 ft | 468 kts | 96° |
| 2026-05-04 12:48 | 13.84663 | 140.47942 | 38964 ft | 467 kts | 95° |
| 2026-05-04 12:48 | 13.84197 | 140.54625 | 38965 ft | 468 kts | 96° |
| 2026-05-04 12:49 | 13.83730 | 140.61315 | 38965 ft | 468 kts | 95° |
| 2026-05-04 12:49 | 13.83193 | 140.67925 | 38964 ft | 468 kts | 97° |
| 2026-05-04 12:50 | 13.82629 | 140.74611 | 38962 ft | 469 kts | 97° |
| 2026-05-04 12:50 | 13.82067 | 140.81300 | 38965 ft | 468 kts | 96° |
| 2026-05-04 12:51 | 13.81502 | 140.87990 | 38971 ft | 468 kts | 97° |
| 2026-05-04 12:51 | 13.80942 | 140.94606 | 38965 ft | 467 kts | 97° |
| 2026-05-04 12:52 | 13.80377 | 141.01268 | 38962 ft | 467 kts | 97° |
| 2026-05-04 12:52 | 13.79809 | 141.07933 | 38966 ft | 467 kts | 97° |
| 2026-05-04 12:53 | 13.79242 | 141.14561 | 38967 ft | 468 kts | 97° |
| 2026-05-04 12:53 | 13.78671 | 141.21228 | 38970 ft | 468 kts | 97° |
| 2026-05-04 12:54 | 13.78095 | 141.27921 | 38965 ft | 468 kts | 97° |
| 2026-05-04 12:54 | 13.77522 | 141.34556 | 38970 ft | 468 kts | 97° |
| 2026-05-04 12:55 | 13.76944 | 141.41237 | 38967 ft | 470 kts | 97° |
| 2026-05-04 12:55 | 13.76367 | 141.47896 | 38961 ft | 467 kts | 96° |
| 2026-05-04 12:56 | 13.75787 | 141.54550 | 38969 ft | 466 kts | 97° |
| 2026-05-04 12:56 | 13.75205 | 141.61199 | 38969 ft | 466 kts | 96° |
| 2026-05-04 12:57 | 13.74625 | 141.67828 | 38964 ft | 466 kts | 97° |
| 2026-05-04 12:57 | 13.74044 | 141.74431 | 38961 ft | 465 kts | 96° |
| 2026-05-04 12:58 | 13.73460 | 141.81073 | 38964 ft | 466 kts | 97° |
| 2026-05-04 12:58 | 13.72872 | 141.87690 | 38972 ft | 466 kts | 97° |
| 2026-05-04 12:59 | 13.72283 | 141.94330 | 38967 ft | 467 kts | 96° |
| 2026-05-04 12:59 | 13.71691 | 142.00987 | 38965 ft | 467 kts | 96° |
| 2026-05-04 13:00 | 13.71102 | 142.07606 | 38959 ft | 467 kts | 97° |
| 2026-05-04 13:00 | 13.70503 | 142.14278 | 38968 ft | 468 kts | 96° |
| 2026-05-04 13:01 | 13.69905 | 142.20937 | 38973 ft | 467 kts | 97° |
| 2026-05-04 13:01 | 13.69309 | 142.27564 | 38970 ft | 468 kts | 97° |
| 2026-05-04 13:02 | 13.68709 | 142.34191 | 38372 ft | 462 kts | 97° |
| 2026-05-04 13:02 | 13.68511 | 142.36380 | 37765 ft | 466 kts | 96° |
| 2026-05-04 13:02 | 13.68110 | 142.40807 | 36743 ft | 469 kts | 96° |
| 2026-05-04 13:02 | 13.67809 | 142.44127 | 36265 ft | 464 kts | 96° |
| 2026-05-04 13:03 | 13.67610 | 142.46316 | 35980 ft | 461 kts | 95° |
| 2026-05-04 13:03 | 13.67311 | 142.49599 | 35468 ft | 459 kts | 95° |
| 2026-05-04 13:03 | 13.67013 | 142.52865 | 34902 ft | 458 kts | 95° |
| 2026-05-04 13:03 | 13.66617 | 142.57197 | 34142 ft | 459 kts | 95° |
| 2026-05-04 13:04 | 13.66415 | 142.59405 | 33752 ft | 459 kts | 94° |
| 2026-05-04 13:04 | 13.66119 | 142.62627 | 33159 ft | 457 kts | 95° |
| 2026-05-04 13:04 | 13.65821 | 142.65881 | 32619 ft | 455 kts | 95° |
| 2026-05-04 13:04 | 13.65525 | 142.69100 | 32105 ft | 453 kts | 95° |
| 2026-05-04 13:05 | 13.65229 | 142.72322 | 31593 ft | 451 kts | 95° |
| 2026-05-04 13:05 | 13.64934 | 142.75523 | 31074 ft | 449 kts | 95° |
| 2026-05-04 13:05 | 13.64639 | 142.78717 | 30557 ft | 447 kts | 95° |
| 2026-05-04 13:05 | 13.64345 | 142.81900 | 30042 ft | 445 kts | 95° |
| 2026-05-04 13:06 | 13.64053 | 142.85067 | 29458 ft | 443 kts | 95° |
| 2026-05-04 13:06 | 13.63765 | 142.88179 | 28939 ft | 440 kts | 95° |
| 2026-05-04 13:06 | 13.63476 | 142.91299 | 28461 ft | 436 kts | 95° |
| 2026-05-04 13:06 | 13.63189 | 142.94392 | 28004 ft | 432 kts | 95° |
| 2026-05-04 13:07 | 13.62907 | 142.97436 | 27539 ft | 428 kts | 95° |
| 2026-05-04 13:07 | 13.62624 | 143.00468 | 27084 ft | 425 kts | 95° |
| 2026-05-04 13:07 | 13.62303 | 143.03481 | 26594 ft | 422 kts | 98° |
| 2026-05-04 13:07 | 13.61843 | 143.06467 | 26103 ft | 420 kts | 98° |
| 2026-05-04 13:08 | 13.61407 | 143.09386 | 25718 ft | 416 kts | 98° |
| 2026-05-04 13:08 | 13.60977 | 143.12313 | 25301 ft | 413 kts | 98° |
| 2026-05-04 13:08 | 13.60552 | 143.15230 | 24873 ft | 410 kts | 98° |
| 2026-05-04 13:08 | 13.60132 | 143.18120 | 24448 ft | 408 kts | 98° |
| 2026-05-04 13:09 | 13.59714 | 143.20992 | 24030 ft | 406 kts | 98° |
| 2026-05-04 13:09 | 13.59297 | 143.23855 | 23610 ft | 404 kts | 98° |
| 2026-05-04 13:09 | 13.58882 | 143.26702 | 23120 ft | 402 kts | 98° |
| 2026-05-04 13:09 | 13.58470 | 143.29519 | 22673 ft | 394 kts | 97° |
| 2026-05-04 13:10 | 13.58068 | 143.32270 | 22271 ft | 385 kts | 98° |
| 2026-05-04 13:10 | 13.57674 | 143.34966 | 21871 ft | 377 kts | 98° |
| 2026-05-04 13:10 | 13.57288 | 143.37605 | 21487 ft | 369 kts | 98° |
| 2026-05-04 13:10 | 13.56915 | 143.40159 | 21121 ft | 361 kts | 98° |
| 2026-05-04 13:11 | 13.56543 | 143.42693 | 20751 ft | 354 kts | 98° |
| 2026-05-04 13:11 | 13.56179 | 143.45174 | 20388 ft | 348 kts | 98° |
| 2026-05-04 13:11 | 13.55824 | 143.47598 | 20040 ft | 341 kts | 98° |
| 2026-05-04 13:11 | 13.55473 | 143.49989 | 19696 ft | 335 kts | 98° |
| 2026-05-04 13:12 | 13.55127 | 143.52339 | 19351 ft | 329 kts | 98° |
| 2026-05-04 13:12 | 13.54788 | 143.54644 | 19018 ft | 323 kts | 98° |
| 2026-05-04 13:12 | 13.54460 | 143.56875 | 18691 ft | 317 kts | 98° |
| 2026-05-04 13:12 | 13.54131 | 143.59109 | 18368 ft | 315 kts | 98° |
| 2026-05-04 13:13 | 13.53800 | 143.61359 | 17989 ft | 321 kts | 98° |
| 2026-05-04 13:13 | 13.53464 | 143.63641 | 17638 ft | 323 kts | 97° |
| 2026-05-04 13:13 | 13.53128 | 143.65916 | 17292 ft | 321 kts | 98° |
| 2026-05-04 13:13 | 13.52795 | 143.68174 | 16960 ft | 318 kts | 97° |
| 2026-05-04 13:14 | 13.52468 | 143.70390 | 16633 ft | 316 kts | 97° |
| 2026-05-04 13:14 | 13.52141 | 143.72602 | 16305 ft | 313 kts | 97° |
| 2026-05-04 13:14 | 13.51815 | 143.74807 | 15987 ft | 311 kts | 98° |
| 2026-05-04 13:14 | 13.51491 | 143.77001 | 15655 ft | 309 kts | 97° |
| 2026-05-04 13:15 | 13.51169 | 143.79176 | 15339 ft | 306 kts | 98° |
| 2026-05-04 13:15 | 13.50849 | 143.81336 | 15021 ft | 305 kts | 98° |
| 2026-05-04 13:15 | 13.50530 | 143.83485 | 14713 ft | 303 kts | 97° |
| 2026-05-04 13:15 | 13.50213 | 143.85623 | 14389 ft | 301 kts | 97° |
| 2026-05-04 13:16 | 13.49899 | 143.87745 | 14069 ft | 300 kts | 97° |
| 2026-05-04 13:16 | 13.49589 | 143.89836 | 13759 ft | 299 kts | 98° |
| 2026-05-04 13:16 | 13.49272 | 143.91970 | 13406 ft | 297 kts | 97° |
| 2026-05-04 13:16 | 13.48964 | 143.94037 | 13082 ft | 295 kts | 97° |
| 2026-05-04 13:17 | 13.48656 | 143.96111 | 12768 ft | 292 kts | 97° |
| 2026-05-04 13:17 | 13.48350 | 143.98166 | 12452 ft | 290 kts | 97° |
| 2026-05-04 13:17 | 13.48046 | 144.00208 | 12154 ft | 288 kts | 97° |
| 2026-05-04 13:17 | 13.47745 | 144.02231 | 11854 ft | 285 kts | 97° |
| 2026-05-04 13:18 | 13.47445 | 144.04240 | 11549 ft | 283 kts | 97° |
| 2026-05-04 13:18 | 13.47150 | 144.06208 | 11238 ft | 281 kts | 97° |
| 2026-05-04 13:18 | 13.46856 | 144.08188 | 10953 ft | 279 kts | 96° |
| 2026-05-04 13:18 | 13.46563 | 144.10152 | 10658 ft | 277 kts | 97° |
| 2026-05-04 13:19 | 13.46271 | 144.12107 | 10360 ft | 275 kts | 97° |
| 2026-05-04 13:19 | 13.45985 | 144.14016 | 10130 ft | 271 kts | 96° |
| 2026-05-04 13:19 | 13.45703 | 144.15904 | 9948 ft | 264 kts | 97° |
| 2026-05-04 13:19 | 13.45424 | 144.17767 | 9669 ft | 262 kts | 96° |
| 2026-05-04 13:20 | 13.45147 | 144.19616 | 9352 ft | 261 kts | 97° |
| 2026-05-04 13:20 | 13.44872 | 144.21452 | 9069 ft | 259 kts | 97° |
| 2026-05-04 13:20 | 13.44601 | 144.23267 | 8789 ft | 256 kts | 97° |
| 2026-05-04 13:20 | 13.44331 | 144.25067 | 8506 ft | 254 kts | 97° |
| 2026-05-04 13:21 | 13.44066 | 144.26833 | 8241 ft | 251 kts | 97° |
| 2026-05-04 13:21 | 13.43801 | 144.28598 | 7981 ft | 249 kts | 97° |
| 2026-05-04 13:21 | 13.43539 | 144.30346 | 7717 ft | 247 kts | 97° |
| 2026-05-04 13:21 | 13.43277 | 144.32087 | 7444 ft | 245 kts | 97° |
| 2026-05-04 13:22 | 13.43017 | 144.33812 | 7177 ft | 243 kts | 97° |
| 2026-05-04 13:22 | 13.42760 | 144.35525 | 6918 ft | 241 kts | 97° |
| 2026-05-04 13:22 | 13.42501 | 144.37246 | 6662 ft | 246 kts | 97° |
| 2026-05-04 13:22 | 13.42237 | 144.38998 | 6395 ft | 249 kts | 98° |
| 2026-05-04 13:23 | 13.41975 | 144.40742 | 6111 ft | 251 kts | 98° |
| 2026-05-04 13:23 | 13.41710 | 144.42502 | 5836 ft | 247 kts | 97° |
| 2026-05-04 13:23 | 13.41449 | 144.44231 | 5548 ft | 242 kts | 98° |
| 2026-05-04 13:23 | 13.41196 | 144.45914 | 5331 ft | 234 kts | 97° |
| 2026-05-04 13:24 | 13.40954 | 144.47519 | 5218 ft | 222 kts | 97° |
| 2026-05-04 13:24 | 13.40724 | 144.49041 | 5139 ft | 210 kts | 97° |
| 2026-05-04 13:24 | 13.40506 | 144.50485 | 5036 ft | 200 kts | 97° |
| 2026-05-04 13:25 | 13.40102 | 144.53169 | 4781 ft | 182 kts | 97° |
| 2026-05-04 13:25 | 13.39912 | 144.54427 | 4687 ft | 180 kts | 97° |
| 2026-05-04 13:25 | 13.39721 | 144.55687 | 4629 ft | 173 kts | 96° |
| 2026-05-04 13:25 | 13.39541 | 144.56872 | 4494 ft | 166 kts | 97° |
| 2026-05-04 13:26 | 13.39366 | 144.58035 | 4283 ft | 163 kts | 97° |
| 2026-05-04 13:26 | 13.39330 | 144.59183 | 4073 ft | 160 kts | 80° |
| 2026-05-04 13:26 | 13.39660 | 144.60264 | 3879 ft | 157 kts | 69° |
| 2026-05-04 13:26 | 13.40100 | 144.61274 | 3701 ft | 154 kts | 68° |
| 2026-05-04 13:27 | 13.40543 | 144.62258 | 3516 ft | 153 kts | 68° |
| 2026-05-04 13:27 | 13.40990 | 144.63244 | 3326 ft | 152 kts | 68° |
| 2026-05-04 13:27 | 13.41436 | 144.64226 | 3135 ft | 151 kts | 68° |
| 2026-05-04 13:27 | 13.41881 | 144.65203 | 2946 ft | 150 kts | 68° |
| 2026-05-04 13:28 | 13.42325 | 144.66177 | 2745 ft | 150 kts | 67° |
| 2026-05-04 13:28 | 13.42760 | 144.67133 | 2584 ft | 147 kts | 66° |
| 2026-05-04 13:28 | 13.43169 | 144.68033 | 2412 ft | 131 kts | 66° |
| 2026-05-04 13:28 | 13.43551 | 144.68871 | 2228 ft | 129 kts | 67° |
| 2026-05-04 13:29 | 13.43924 | 144.69698 | 2096 ft | 126 kts | 66° |
| 2026-05-04 13:29 | 13.44300 | 144.70521 | 1920 ft | 129 kts | 67° |
| 2026-05-04 13:29 | 13.44686 | 144.71355 | 1624 ft | 130 kts | 73° |
| 2026-05-04 13:29 | 13.45050 | 144.72210 | 1546 ft | 132 kts | 70° |
| 2026-05-04 13:30 | 13.45443 | 144.73038 | 1469 ft | 129 kts | 68° |
| 2026-05-04 13:30 | 13.45843 | 144.73821 | 1287 ft | 123 kts | 66° |
| 2026-05-04 13:30 | 13.46216 | 144.74640 | 1090 ft | 134 kts | 66° |
| 2026-05-04 13:30 | 13.46560 | 144.75507 | 940 ft | 128 kts | 66° |
| 2026-05-04 13:31 | 13.46940 | 144.76319 | 749 ft | 127 kts | 66° |
| 2026-05-04 13:31 | 13.47319 | 144.77112 | 599 ft | 123 kts | 68° |
| 2026-05-04 13:31 | 13.47687 | 144.77952 | 492 ft | 140 kts | 67° |
| 2026-05-04 13:31 | 13.48151 | 144.78749 | 1499 ft | 127 kts | 47° |
| 2026-05-04 13:32 | 13.49039 | 144.79059 | 2158 ft | 159 kts | 4° |
| 2026-05-04 13:32 | 13.50221 | 144.78649 | 2772 ft | 201 kts | 336° |
| 2026-05-04 13:32 | 13.51467 | 144.77758 | 3523 ft | 235 kts | 327° |
| 2026-05-04 13:32 | 13.52759 | 144.76572 | 4154 ft | 267 kts | 321° |
| 2026-05-04 13:33 | 13.54093 | 144.75224 | 4939 ft | 274 kts | 317° |
| 2026-05-04 13:33 | 13.55304 | 144.73688 | 5107 ft | 283 kts | 305° |
| 2026-05-04 13:33 | 13.56017 | 144.71798 | 4989 ft | 283 kts | 284° |
| 2026-05-04 13:33 | 13.56384 | 144.69817 | 5020 ft | 287 kts | 281° |
| 2026-05-04 13:34 | 13.56711 | 144.67809 | 4984 ft | 281 kts | 281° |
| 2026-05-04 13:34 | 13.57017 | 144.65844 | 4987 ft | 276 kts | 280° |
| 2026-05-04 13:34 | 13.57316 | 144.63887 | 4875 ft | 277 kts | 280° |
| 2026-05-04 13:34 | 13.57621 | 144.61932 | 4656 ft | 277 kts | 280° |
| 2026-05-04 13:35 | 13.57933 | 144.59981 | 4410 ft | 276 kts | 280° |
| 2026-05-04 13:35 | 13.58538 | 144.56113 | 3919 ft | 274 kts | 280° |
| 2026-05-04 13:35 | 13.58836 | 144.54177 | 3680 ft | 274 kts | 280° |
| 2026-05-04 13:36 | 13.59116 | 144.52248 | 3438 ft | 272 kts | 277° |
| 2026-05-04 13:36 | 13.58919 | 144.50341 | 3179 ft | 270 kts | 251° |
| 2026-05-04 13:36 | 13.58245 | 144.48563 | 3054 ft | 261 kts | 245° |
| 2026-05-04 13:36 | 13.57537 | 144.46887 | 3020 ft | 249 kts | 242° |
| 2026-05-04 13:37 | 13.56766 | 144.45327 | 3002 ft | 243 kts | 240° |
| 2026-05-04 13:37 | 13.55990 | 144.43779 | 2967 ft | 244 kts | 240° |
| 2026-05-04 13:37 | 13.55216 | 144.42234 | 2997 ft | 242 kts | 240° |
| 2026-05-04 13:37 | 13.54703 | 144.41216 | 2975 ft | 241 kts | 240° |
| 2026-05-04 13:38 | 13.53663 | 144.39187 | 2925 ft | 243 kts | 239° |
| 2026-05-04 13:38 | 13.52891 | 144.37634 | 2932 ft | 244 kts | 240° |
| 2026-05-04 13:38 | 13.52120 | 144.36083 | 2966 ft | 243 kts | 240° |
| 2026-05-04 13:38 | 13.51220 | 144.34620 | 2935 ft | 239 kts | 220° |
| 2026-05-04 13:39 | 13.49841 | 144.33800 | 2884 ft | 225 kts | 186° |
| 2026-05-04 13:39 | 13.48340 | 144.33847 | 2981 ft | 214 kts | 159° |
| 2026-05-04 13:39 | 13.46937 | 144.34287 | 3005 ft | 214 kts | 154° |
| 2026-05-04 13:39 | 13.45565 | 144.34850 | 2966 ft | 211 kts | 150° |
| 2026-05-04 13:40 | 13.44211 | 144.35446 | 2954 ft | 211 kts | 150° |
| 2026-05-04 13:40 | 13.42859 | 144.36040 | 2955 ft | 211 kts | 150° |
| 2026-05-04 13:40 | 13.41507 | 144.36635 | 2956 ft | 211 kts | 150° |
| 2026-05-04 13:40 | 13.40150 | 144.37233 | 2952 ft | 211 kts | 150° |
| 2026-05-04 13:41 | 13.38801 | 144.37831 | 2957 ft | 211 kts | 150° |
| 2026-05-04 13:41 | 13.37650 | 144.38656 | 2927 ft | 199 kts | 121° |
| 2026-05-04 13:41 | 13.37184 | 144.39919 | 2938 ft | 182 kts | 94° |
| 2026-05-04 13:42 | 13.37062 | 144.42397 | 3016 ft | 165 kts | 90° |
| 2026-05-04 13:42 | 13.37039 | 144.43528 | 2950 ft | 152 kts | 90° |
| 2026-05-04 13:42 | 13.37015 | 144.44575 | 2908 ft | 146 kts | 90° |
| 2026-05-04 13:42 | 13.36991 | 144.45615 | 2928 ft | 146 kts | 90° |
| 2026-05-04 13:43 | 13.36957 | 144.46662 | 2937 ft | 148 kts | 90° |
| 2026-05-04 13:43 | 13.36910 | 144.47728 | 2983 ft | 150 kts | 90° |
| 2026-05-04 13:43 | 13.36878 | 144.48797 | 2997 ft | 150 kts | 90° |
| 2026-05-04 13:43 | 13.36852 | 144.49867 | 2982 ft | 150 kts | 90° |
| 2026-05-04 13:44 | 13.36819 | 144.50926 | 2986 ft | 146 kts | 90° |
| 2026-05-04 13:44 | 13.36785 | 144.51965 | 2949 ft | 145 kts | 90° |
| 2026-05-04 13:44 | 13.36778 | 144.52991 | 2915 ft | 147 kts | 83° |
| 2026-05-04 13:44 | 13.37005 | 144.54015 | 2978 ft | 147 kts | 73° |
| 2026-05-04 13:45 | 13.37353 | 144.55009 | 2983 ft | 148 kts | 70° |
| 2026-05-04 13:45 | 13.37744 | 144.55991 | 2980 ft | 149 kts | 69° |
| 2026-05-04 13:45 | 13.38159 | 144.56965 | 2999 ft | 148 kts | 68° |
| 2026-05-04 13:45 | 13.38583 | 144.57928 | 2964 ft | 148 kts | 68° |
| 2026-05-04 13:46 | 13.39013 | 144.58887 | 2965 ft | 148 kts | 68° |
| 2026-05-04 13:46 | 13.39446 | 144.59847 | 2982 ft | 149 kts | 67° |
| 2026-05-04 13:46 | 13.39878 | 144.60802 | 2983 ft | 149 kts | 68° |
| 2026-05-04 13:46 | 13.40314 | 144.61763 | 2982 ft | 149 kts | 68° |
| 2026-05-04 13:47 | 13.40754 | 144.62728 | 2982 ft | 149 kts | 68° |
| 2026-05-04 13:47 | 13.41193 | 144.63694 | 2991 ft | 149 kts | 68° |
| 2026-05-04 13:47 | 13.41633 | 144.64658 | 2969 ft | 150 kts | 67° |
| 2026-05-04 13:47 | 13.42077 | 144.65633 | 2799 ft | 149 kts | 67° |
| 2026-05-04 13:48 | 13.42515 | 144.66595 | 2638 ft | 147 kts | 66° |
| 2026-05-04 13:48 | 13.42946 | 144.67544 | 2464 ft | 147 kts | 68° |
| 2026-05-04 13:48 | 13.43366 | 144.68463 | 2322 ft | 138 kts | 67° |
| 2026-05-04 13:48 | 13.43765 | 144.69344 | 2146 ft | 134 kts | 66° |
| 2026-05-04 13:49 | 13.44159 | 144.70204 | 2010 ft | 132 kts | 67° |
| 2026-05-04 13:49 | 13.44551 | 144.71058 | 1780 ft | 133 kts | 69° |
| 2026-05-04 13:49 | 13.44952 | 144.71917 | 1705 ft | 132 kts | 71° |
| 2026-05-04 13:49 | 13.45323 | 144.72762 | 1455 ft | 127 kts | 69° |
| 2026-05-04 13:50 | 13.45663 | 144.73565 | 1276 ft | 124 kts | 68° |
| 2026-05-04 13:50 | 13.46069 | 144.74406 | 1152 ft | 137 kts | 67° |
| 2026-05-04 13:50 | 13.46460 | 144.75294 | 969 ft | 136 kts | 66° |
| 2026-05-04 13:50 | 13.46865 | 144.76148 | 782 ft | 131 kts | 68° |
| 2026-05-04 13:51 | 13.47241 | 144.76979 | 581 ft | 126 kts | 69° |
| 2026-05-04 13:51 | 13.47625 | 144.77803 | 427 ft | 131 kts | 65° |
| 2026-05-04 13:51 | 13.48020 | 144.78672 | 300 ft | 136 kts | 65° |
| 2026-05-04 13:51 | 13.48374 | 144.79451 | 281 ft | 97 kts | 65° |
| 2026-05-04 13:52 | 13.48698 | 144.80154 | 293 ft | 43 kts | 65° |
| 2026-05-04 13:52 | 13.48819 | 144.80424 | 297 ft | 40 kts | 64° |
| 2026-05-04 13:52 | 13.48936 | 144.80677 | 298 ft | 38 kts | 65° |
| 2026-05-04 13:53 | 13.49009 | 144.80838 | 302 ft | 36 kts | 65° |
| 2026-05-04 13:53 | 13.49154 | 144.80962 | 303 ft | 27 kts | 27° |
| 2026-05-04 13:53 | 13.49273 | 144.80975 | 300 ft | 15 kts | 302° |
| 2026-05-04 13:54 | 13.49307 | 144.80862 | 301 ft | 9 kts | 334° |
| 2026-05-04 13:54 | 13.49335 | 144.80847 | 299 ft | 0 kts | 333° |